createdAt,value
2022-11-24T00:00:18.348Z,1.60
2022-11-24T00:07:39.524Z,1.50
2022-11-24T00:10:09.776Z,1.30
2022-11-24T00:15:06.824Z,1.50
2022-11-24T00:17:34.203Z,1.70
2022-11-24T00:20:00.903Z,2.00
2022-11-24T00:24:54.661Z,1.60
2022-11-24T00:29:48.419Z,1.60
2022-11-24T00:32:15.118Z,1.80
2022-11-24T00:34:42.465Z,1.70
2022-11-24T00:37:09.438Z,1.60
2022-11-24T00:42:03.583Z,1.80
2022-11-24T00:51:52.634Z,1.70
2022-11-24T01:04:08.610Z,2.00
2022-11-24T01:06:36.530Z,1.70
2022-11-24T01:09:04.290Z,2.00
2022-11-24T01:11:53.847Z,1.90
2022-11-24T01:14:22.147Z,1.80
2022-11-24T01:16:49.180Z,1.50
2022-11-24T01:19:22.164Z,1.80
2022-11-24T01:24:17.178Z,1.80
2022-11-24T01:29:11.816Z,1.80
2022-11-24T01:31:38.749Z,1.80
2022-11-24T01:34:05.789Z,1.70
2022-11-24T01:36:32.521Z,2.60
2022-11-24T01:39:02.197Z,1.80
2022-11-24T01:41:29.681Z,1.70
2022-11-24T01:46:30.008Z,1.70
2022-11-24T01:49:05.238Z,1.60
2022-11-24T01:51:35.409Z,1.80
2022-11-24T01:54:06.835Z,2.40
2022-11-24T01:56:36.751Z,2.00
2022-11-24T01:59:07.358Z,1.80
2022-11-24T02:01:35.284Z,1.80
2022-11-24T02:04:07.249Z,1.70
2022-11-24T02:06:38.859Z,1.80
2022-11-24T02:09:11.463Z,3.50
2022-11-24T02:11:45.673Z,2.10
2022-11-24T02:14:15.790Z,1.90
2022-11-24T02:16:47.879Z,1.90
2022-11-24T02:19:21.724Z,1.80
2022-11-24T02:24:23.878Z,1.90
2022-11-24T02:26:51.805Z,2.00
2022-11-24T02:29:19.560Z,1.80
2022-11-24T02:31:50.824Z,1.70
2022-11-24T02:36:44.747Z,1.80
2022-11-24T02:39:12.338Z,1.70
2022-11-24T02:41:41.990Z,1.90
2022-11-24T02:44:10.668Z,1.50
2022-11-24T02:46:37.343Z,1.50
2022-11-24T02:51:33.641Z,5.40
2022-11-24T02:54:00.604Z,1.50
2022-11-24T03:01:22.535Z,1.60
2022-11-24T03:03:49.232Z,1.40
2022-11-24T03:08:43.439Z,1.50
2022-11-24T03:11:10.065Z,1.80
2022-11-24T03:13:36.685Z,1.30
2022-11-24T03:18:31.561Z,1.50
2022-11-24T03:20:59.795Z,1.50
2022-11-24T03:23:26.543Z,1.50
2022-11-24T03:25:53.979Z,1.50
2022-11-24T03:28:20.678Z,1.70
2022-11-24T03:30:48.339Z,1.60
2022-11-24T03:35:43.132Z,1.50
2022-11-24T03:48:13.214Z,1.70
2022-11-24T03:53:07.481Z,1.50
2022-11-24T03:55:34.523Z,1.70
2022-11-24T04:00:28.173Z,1.30
2022-11-24T04:05:21.827Z,1.60
2022-11-24T04:07:48.548Z,1.40
2022-11-24T04:10:16.095Z,1.40
2022-11-24T04:12:44.977Z,1.50
2022-11-24T04:20:06.618Z,1.40
2022-11-24T04:27:27.947Z,1.40
2022-11-24T04:32:21.733Z,1.20
2022-11-24T04:34:48.413Z,1.30
2022-11-24T04:44:36.886Z,1.40
2022-11-24T04:47:04.314Z,1.90
2022-11-24T04:51:58.138Z,1.70
2022-11-24T04:56:52.409Z,1.30
2022-11-24T04:59:19.260Z,1.50
2022-11-24T05:01:46.714Z,1.40
2022-11-24T05:04:15.113Z,1.50
2022-11-24T05:06:42.087Z,1.40
2022-11-24T05:09:13.331Z,1.30
2022-11-24T05:11:40.169Z,1.20
2022-11-24T05:16:34.040Z,1.60
2022-11-24T05:19:02.923Z,1.70
2022-11-24T05:26:24.736Z,2.10
2022-11-24T05:31:18.527Z,1.20
2022-11-24T05:36:34.276Z,1.40
2022-11-24T05:39:01.026Z,1.70
2022-11-24T05:51:54.978Z,1.50
2022-11-24T05:56:48.648Z,3.90
2022-11-24T05:59:15.286Z,1.40
2022-11-24T06:06:36.308Z,1.40
2022-11-24T06:09:04.205Z,1.40
2022-11-24T06:16:25.049Z,1.50
2022-11-24T06:18:51.721Z,1.40
2022-11-24T06:21:18.346Z,1.40
2022-11-24T06:23:47.799Z,1.30
2022-11-24T06:26:17.111Z,1.20
2022-11-24T06:31:12.301Z,-0.40
2022-11-24T06:36:08.205Z,1.10
2022-11-24T06:38:38.819Z,1.00
2022-11-24T06:41:07.233Z,0.90
2022-11-24T06:43:35.956Z,1.00
2022-11-24T06:48:31.206Z,1.10
2022-11-24T06:50:59.750Z,1.00
2022-11-24T06:58:21.719Z,1.20
2022-11-24T07:00:51.407Z,1.30
2022-11-24T07:18:13.062Z,1.50
2022-11-24T07:23:07.358Z,1.30
2022-11-24T07:30:28.290Z,1.10
2022-11-24T07:32:59.711Z,1.30
2022-11-24T07:35:29.407Z,1.50
2022-11-24T07:37:57.084Z,1.20
2022-11-24T07:45:22.224Z,1.50
2022-11-24T07:47:50.036Z,1.00
2022-11-24T07:50:17.442Z,1.40
2022-11-24T07:52:44.868Z,1.40
2022-11-24T07:55:11.513Z,1.40
2022-11-24T08:00:10.663Z,4.20
2022-11-24T08:02:37.359Z,1.50
2022-11-24T08:07:31.236Z,1.40
2022-11-24T08:09:58.749Z,1.60
2022-11-24T08:19:46.414Z,1.70
2022-11-24T08:27:13.892Z,1.60
2022-11-24T08:37:03.628Z,1.50
2022-11-24T08:39:30.406Z,1.90
2022-11-24T08:41:57.228Z,1.90
2022-11-24T08:44:24.685Z,1.90
2022-11-24T08:46:53.254Z,2.10
2022-11-24T08:51:49.317Z,2.00
2022-11-24T08:54:17.944Z,4.00
2022-11-24T08:56:45.242Z,2.00
2022-11-24T08:59:13.125Z,2.10
2022-11-24T09:01:41.102Z,2.10
2022-11-24T09:04:07.867Z,1.90
2022-11-24T09:06:35.026Z,2.00
2022-11-24T09:11:28.801Z,2.30
2022-11-24T09:13:55.621Z,1.50
2022-11-24T09:16:25.136Z,2.20
2022-11-24T09:18:56.755Z,2.10
2022-11-24T09:21:23.634Z,2.50
2022-11-24T09:23:51.798Z,2.30
2022-11-24T09:26:20.741Z,2.50
2022-11-24T09:28:48.198Z,2.40
2022-11-24T09:31:17.153Z,2.50
2022-11-24T09:33:44.588Z,3.00
2022-11-24T09:36:12.440Z,2.70
2022-11-24T09:38:39.619Z,2.80
2022-11-24T09:41:38.809Z,2.90
2022-11-24T09:44:11.477Z,2.70
2022-11-24T09:46:48.886Z,1.40
2022-11-24T09:49:23.816Z,2.70
2022-11-24T09:51:54.756Z,2.90
2022-11-24T09:54:25.746Z,3.00
2022-11-24T09:56:52.702Z,3.10
2022-11-24T09:59:21.779Z,5.80
2022-11-24T10:01:50.407Z,3.40
2022-11-24T10:04:21.152Z,3.60
2022-11-24T10:07:01.169Z,3.30
2022-11-24T10:09:56.318Z,3.60
2022-11-24T10:12:42.728Z,3.60
2022-11-24T10:15:37.621Z,3.50
2022-11-24T10:18:30.033Z,3.70
2022-11-24T10:21:07.330Z,4.30
2022-11-24T10:23:49.446Z,4.10
2022-11-24T10:26:32.653Z,4.00
2022-11-24T10:31:32.667Z,4.10
2022-11-24T10:34:03.988Z,4.60
2022-11-24T10:36:42.193Z,4.40
2022-11-24T10:39:17.913Z,4.30
2022-11-24T10:41:50.634Z,5.00
2022-11-24T10:46:44.339Z,5.40
2022-11-24T10:49:17.697Z,5.30
2022-11-24T10:51:56.602Z,5.30
2022-11-24T10:54:24.352Z,5.20
2022-11-24T10:56:52.254Z,5.90
2022-11-24T10:59:27.449Z,4.50
2022-11-24T11:01:56.916Z,4.70
2022-11-24T11:04:26.848Z,4.70
2022-11-24T11:07:15.902Z,4.80
2022-11-24T11:09:43.593Z,4.90
2022-11-24T11:12:41.947Z,5.10
2022-11-24T11:15:22.692Z,5.40
2022-11-24T11:20:20.791Z,6.40
2022-11-24T11:22:48.869Z,6.50
2022-11-24T11:25:21.888Z,6.50
2022-11-24T11:27:49.156Z,6.30
2022-11-24T11:36:10.590Z,6.40
2022-11-24T11:38:39.077Z,6.10
2022-11-24T11:41:10.545Z,6.10
2022-11-24T11:43:40.650Z,5.60
2022-11-24T11:46:12.912Z,5.60
2022-11-24T11:48:44.361Z,5.50
2022-11-24T11:51:30.147Z,5.40
2022-11-24T11:54:04.982Z,5.50
2022-11-24T11:56:43.512Z,5.50
2022-11-24T11:59:36.985Z,5.50
2022-11-24T12:02:31.052Z,5.50
2022-11-24T12:05:00.588Z,5.20
2022-11-24T12:07:41.632Z,5.60
2022-11-24T12:10:21.832Z,5.50
2022-11-24T12:13:28.278Z,6.20
2022-11-24T12:15:57.614Z,6.00
2022-11-24T12:18:56.684Z,5.90
2022-11-24T12:21:26.904Z,6.10
2022-11-24T12:24:08.273Z,5.90
2022-11-24T12:26:42.616Z,6.10
2022-11-24T12:29:48.469Z,5.80
2022-11-24T12:32:28.421Z,5.90
2022-11-24T12:34:59.369Z,6.00
2022-11-24T12:37:42.753Z,5.90
2022-11-24T12:40:15.461Z,5.80
2022-11-24T12:42:51.548Z,5.90
2022-11-24T12:45:28.047Z,5.90
2022-11-24T12:48:15.397Z,5.90
2022-11-24T12:50:45.427Z,5.80
2022-11-24T12:53:15.178Z,5.70
2022-11-24T12:55:43.005Z,5.70
2022-11-24T12:58:16.881Z,5.80
2022-11-24T13:00:55.289Z,5.40
2022-11-24T13:03:33.238Z,5.60
2022-11-24T13:06:05.713Z,3.90
2022-11-24T13:11:33.369Z,5.80
2022-11-24T13:14:02.424Z,5.80
2022-11-24T13:16:38.511Z,5.80
2022-11-24T13:19:15.564Z,5.70
2022-11-24T13:22:16.975Z,5.60
2022-11-24T13:24:44.586Z,5.80
2022-11-24T13:27:39.373Z,5.80
2022-11-24T13:30:51.311Z,6.90
2022-11-24T13:33:32.518Z,6.10
2022-11-24T13:36:30.680Z,5.70
2022-11-24T13:38:58.475Z,5.60
2022-11-24T13:42:10.328Z,5.50
2022-11-24T13:44:58.326Z,5.60
2022-11-24T13:47:34.462Z,5.60
2022-11-24T13:50:03.721Z,5.60
2022-11-24T13:52:43.809Z,5.50
2022-11-24T13:55:31.365Z,5.40
2022-11-24T13:58:02.249Z,5.30
2022-11-24T14:00:31.336Z,5.20
2022-11-24T14:03:01.241Z,5.50
2022-11-24T14:05:35.484Z,5.40
2022-11-24T14:08:03.033Z,5.40
2022-11-24T14:10:33.852Z,5.30
2022-11-24T14:13:17.499Z,5.40
2022-11-24T14:15:44.505Z,5.50
2022-11-24T14:18:17.439Z,5.50
2022-11-24T14:20:44.873Z,5.40
2022-11-24T14:23:12.451Z,5.50
2022-11-24T14:25:39.284Z,5.30
2022-11-24T14:28:15.150Z,5.40
2022-11-24T14:30:42.478Z,5.20
2022-11-24T14:33:11.970Z,5.30
2022-11-24T14:35:43.722Z,5.50
2022-11-24T14:38:12.844Z,8.20
2022-11-24T14:40:41.459Z,5.30
2022-11-24T14:43:18.531Z,5.20
2022-11-24T14:45:49.862Z,4.90
2022-11-24T14:48:26.569Z,5.50
2022-11-24T14:51:03.921Z,5.20
2022-11-24T14:53:31.712Z,5.10
2022-11-24T14:56:10.008Z,5.00
2022-11-24T15:01:21.644Z,4.90
2022-11-24T15:04:54.234Z,5.00
2022-11-24T15:07:16.361Z,5.20
2022-11-24T15:09:50.836Z,5.00
2022-11-24T15:12:27.925Z,4.90
2022-11-24T15:14:57.819Z,4.90
2022-11-24T15:17:27.856Z,4.90
2022-11-24T15:19:57.581Z,4.80
2022-11-24T15:22:37.786Z,4.90
2022-11-24T15:25:27.286Z,4.80
2022-11-24T15:27:54.351Z,4.80
2022-11-24T15:30:21.002Z,4.80
2022-11-24T15:32:52.282Z,4.50
2022-11-24T15:35:20.870Z,4.60
2022-11-24T15:37:47.539Z,4.60
2022-11-24T15:40:15.068Z,4.50
2022-11-24T15:42:51.844Z,4.50
2022-11-24T15:45:19.790Z,4.50
2022-11-24T15:47:46.713Z,4.10
2022-11-24T15:50:13.917Z,4.80
2022-11-24T15:52:41.601Z,4.30
2022-11-24T15:55:16.952Z,4.20
2022-11-24T15:57:44.895Z,4.30
2022-11-24T16:00:16.238Z,4.30
2022-11-24T16:05:11.640Z,4.30
2022-11-24T16:07:38.571Z,4.70
2022-11-24T16:10:08.189Z,4.40
2022-11-24T16:12:34.848Z,4.30
2022-11-24T16:15:02.456Z,4.40
2022-11-24T16:17:29.222Z,4.30
2022-11-24T16:20:00.831Z,4.40
2022-11-24T16:22:27.776Z,4.50
2022-11-24T16:24:55.686Z,4.40
2022-11-24T16:27:22.908Z,4.30
2022-11-24T16:29:49.774Z,4.30
2022-11-24T16:32:17.834Z,4.30
2022-11-24T16:37:13.246Z,4.30
2022-11-24T16:39:39.971Z,4.30
2022-11-24T16:42:08.988Z,4.40
2022-11-24T16:44:36.990Z,4.50
2022-11-24T16:49:32.255Z,4.40
2022-11-24T16:54:26.700Z,4.60
2022-11-24T16:56:54.932Z,4.70
2022-11-24T16:59:21.784Z,4.50
2022-11-24T17:04:17.460Z,4.20
2022-11-24T17:06:44.889Z,4.30
2022-11-24T17:09:11.788Z,4.50
2022-11-24T17:14:05.615Z,4.40
2022-11-24T17:16:32.477Z,4.10
2022-11-24T17:18:59.274Z,4.50
2022-11-24T17:21:27.166Z,3.90
2022-11-24T17:23:55.357Z,4.00
2022-11-24T17:28:49.198Z,4.10
2022-11-24T17:31:19.880Z,4.10
2022-11-24T17:33:47.955Z,4.60
2022-11-24T17:36:14.740Z,4.10
2022-11-24T17:38:41.631Z,3.70
2022-11-24T17:41:08.994Z,4.40
2022-11-24T17:46:05.171Z,4.00
2022-11-24T17:48:32.654Z,4.10
2022-11-24T17:51:00.882Z,4.00
2022-11-24T17:53:27.729Z,4.10
2022-11-24T17:55:54.413Z,4.10
2022-11-24T17:58:21.840Z,4.40
2022-11-24T18:00:51.306Z,4.20
2022-11-24T18:05:45.304Z,4.40
2022-11-24T18:08:12.047Z,4.20
2022-11-24T18:13:05.712Z,5.10
2022-11-24T18:15:34.012Z,4.30
2022-11-24T18:18:00.796Z,3.40
2022-11-24T18:20:29.358Z,4.30
2022-11-24T18:23:05.506Z,4.30
2022-11-24T18:25:36.407Z,4.10
2022-11-24T18:32:59.227Z,4.20
2022-11-24T18:35:26.183Z,4.20
2022-11-24T18:37:53.621Z,0.70
2022-11-24T18:40:20.275Z,4.10
2022-11-24T18:42:48.227Z,4.20
2022-11-24T18:45:14.999Z,4.10
2022-11-24T18:47:41.793Z,4.40
2022-11-24T18:50:10.122Z,4.30
2022-11-24T18:55:04.497Z,4.10
2022-11-24T18:57:31.246Z,4.20
2022-11-24T18:59:59.345Z,4.40
2022-11-24T19:02:45.472Z,4.20
2022-11-24T19:05:12.933Z,4.10
2022-11-24T19:10:11.142Z,3.90
2022-11-24T19:12:37.979Z,4.30
2022-11-24T19:15:06.152Z,4.20
2022-11-24T19:17:32.878Z,4.00
2022-11-24T19:19:59.762Z,3.80
2022-11-24T19:22:27.726Z,3.90
2022-11-24T19:24:54.535Z,3.60
2022-11-24T19:27:26.915Z,3.80
2022-11-24T19:29:55.308Z,3.80
2022-11-24T19:32:22.398Z,3.80
2022-11-24T19:34:49.408Z,3.80
2022-11-24T19:37:19.505Z,3.50
2022-11-24T19:39:47.100Z,3.70
2022-11-24T19:42:14.300Z,3.40
2022-11-24T19:47:08.176Z,3.50
2022-11-24T19:49:37.620Z,3.30
2022-11-24T19:52:06.293Z,3.20
2022-11-24T19:54:35.136Z,3.40
2022-11-24T19:57:03.670Z,3.50
2022-11-24T19:59:30.380Z,3.30
2022-11-24T20:01:57.335Z,3.40
2022-11-24T20:04:24.352Z,3.50
2022-11-24T20:09:18.563Z,3.10
2022-11-24T20:11:45.721Z,3.20
2022-11-24T20:14:14.946Z,3.10
2022-11-24T20:16:41.755Z,3.10
2022-11-24T20:19:12.224Z,3.20
2022-11-24T20:21:40.830Z,3.20
2022-11-24T20:24:10.388Z,2.80
2022-11-24T20:26:38.938Z,3.20
2022-11-24T20:29:06.303Z,3.10
2022-11-24T20:31:37.657Z,3.30
2022-11-24T20:34:06.650Z,3.20
2022-11-24T20:36:35.509Z,3.10
2022-11-24T20:39:05.034Z,2.80
2022-11-24T20:41:36.837Z,3.10
2022-11-24T20:44:07.466Z,3.00
2022-11-24T20:46:37.504Z,2.90
2022-11-24T20:51:33.935Z,2.90
2022-11-24T20:54:04.360Z,3.00
2022-11-24T20:56:34.378Z,2.90
2022-11-24T20:59:02.792Z,3.00
2022-11-24T21:01:34.392Z,3.30
2022-11-24T21:04:03.218Z,3.10
2022-11-24T21:06:30.916Z,3.10
2022-11-24T21:09:03.412Z,3.20
2022-11-24T21:11:31.515Z,3.30
2022-11-24T21:13:59.618Z,2.80
2022-11-24T21:16:28.604Z,2.70
2022-11-24T21:18:58.234Z,2.80
2022-11-24T21:21:32.708Z,2.90
2022-11-24T21:24:00.325Z,2.50
2022-11-24T21:28:54.768Z,2.90
2022-11-24T21:31:22.328Z,2.80
2022-11-24T21:33:50.834Z,2.50
2022-11-24T21:36:21.768Z,2.70
2022-11-24T21:38:53.849Z,2.50
2022-11-24T21:41:21.774Z,2.80
2022-11-24T21:46:21.532Z,2.40
2022-11-24T21:48:48.937Z,2.50
2022-11-24T21:51:17.313Z,2.40
2022-11-24T21:53:47.972Z,2.60
2022-11-24T21:56:19.743Z,2.40
2022-11-24T21:58:49.405Z,3.60
2022-11-24T22:01:17.979Z,2.30
2022-11-24T22:03:46.480Z,3.40
2022-11-24T22:06:14.113Z,2.10
2022-11-24T22:08:43.764Z,2.50
2022-11-24T22:11:12.869Z,2.60
2022-11-24T22:13:42.276Z,2.50
2022-11-24T22:16:11.313Z,1.10
2022-11-24T22:18:39.755Z,2.30
2022-11-24T22:21:07.878Z,2.60
2022-11-24T22:23:35.441Z,2.80
2022-11-24T22:26:03.669Z,2.90
2022-11-24T22:28:31.752Z,2.70
2022-11-24T22:31:02.465Z,2.80
2022-11-24T22:35:56.888Z,2.90
2022-11-24T22:38:23.618Z,2.80
2022-11-24T22:40:50.376Z,2.70
2022-11-24T22:43:22.713Z,2.70
2022-11-24T22:48:17.728Z,2.70
2022-11-24T22:50:44.531Z,2.70
2022-11-24T22:53:11.306Z,3.00
2022-11-24T22:55:38.210Z,2.80
2022-11-24T22:58:04.856Z,2.70
2022-11-24T23:05:28.430Z,2.90
2022-11-24T23:10:22.503Z,3.00
2022-11-24T23:12:49.728Z,3.10
2022-11-24T23:15:16.868Z,3.20
2022-11-24T23:17:43.727Z,1.90
2022-11-24T23:20:11.985Z,3.00
2022-11-24T23:22:39.424Z,3.00
2022-11-24T23:25:06.826Z,3.20
2022-11-24T23:27:33.634Z,3.00
2022-11-24T23:32:27.276Z,3.00
2022-11-24T23:40:12.287Z,3.10
2022-11-24T23:42:39.793Z,2.80
2022-11-24T23:45:08.180Z,3.20
2022-11-24T23:50:01.956Z,3.30
2022-11-24T23:52:32.403Z,3.20
2022-11-24T23:54:59.348Z,3.20
2022-11-24T23:57:27.128Z,2.90
2022-11-24T23:59:54.921Z,3.20
